createdAt,value
2018-12-14T00:01:56.863Z,1.43
2018-12-14T00:04:28.994Z,1.57
2018-12-14T00:07:00.229Z,1.50
2018-12-14T00:09:29.333Z,1.53
2018-12-14T00:11:58.630Z,1.70
2018-12-14T00:14:27.778Z,1.33
2018-12-14T00:16:56.874Z,1.50
2018-12-14T00:19:26.141Z,1.70
2018-12-14T00:21:55.238Z,1.50
2018-12-14T00:24:24.465Z,1.23
2018-12-14T00:26:53.585Z,1.43
2018-12-14T00:29:22.698Z,1.40
2018-12-14T00:31:51.858Z,1.47
2018-12-14T00:34:21.090Z,1.63
2018-12-14T00:36:50.222Z,1.53
2018-12-14T00:39:19.403Z,1.60
2018-12-14T00:41:51.986Z,1.50
2018-12-14T00:44:19.793Z,1.00
2018-12-14T00:46:49.510Z,1.30
2018-12-14T00:49:19.366Z,1.40
2018-12-14T00:51:48.481Z,1.50
2018-12-14T00:54:18.703Z,1.97
2018-12-14T00:56:47.866Z,1.43
2018-12-14T00:59:17.285Z,1.70
2018-12-14T01:01:46.665Z,1.50
2018-12-14T01:04:16.518Z,1.43
2018-12-14T01:06:45.678Z,1.60
2018-12-14T01:09:16.042Z,1.40
2018-12-14T01:11:45.338Z,1.57
2018-12-14T01:14:14.458Z,2.27
2018-12-14T01:16:43.666Z,1.80
2018-12-14T01:19:13.005Z,1.80
2018-12-14T01:21:42.231Z,1.60
2018-12-14T01:24:11.349Z,1.90
2018-12-14T01:26:40.526Z,1.40
2018-12-14T01:29:09.722Z,1.40
2018-12-14T01:31:38.999Z,1.47
2018-12-14T01:34:08.094Z,1.80
2018-12-14T01:36:38.270Z,1.70
2018-12-14T01:39:08.482Z,1.50
2018-12-14T01:41:37.589Z,1.70
2018-12-14T01:44:06.670Z,1.70
2018-12-14T01:46:35.850Z,1.50
2018-12-14T01:49:05.230Z,1.47
2018-12-14T01:51:34.434Z,1.47
2018-12-14T01:54:03.767Z,1.40
2018-12-14T01:56:32.853Z,1.67
2018-12-14T01:59:01.998Z,1.77
2018-12-14T02:01:31.182Z,1.50
2018-12-14T02:04:00.543Z,1.47
2018-12-14T02:06:29.630Z,1.50
2018-12-14T02:08:58.866Z,1.50
2018-12-14T02:11:28.046Z,1.20
2018-12-14T02:13:57.258Z,1.50
2018-12-14T02:16:26.494Z,1.80
2018-12-14T02:18:55.649Z,1.30
2018-12-14T02:21:24.782Z,1.47
2018-12-14T02:23:53.919Z,2.43
2018-12-14T02:26:23.153Z,1.53
2018-12-14T02:28:52.289Z,1.67
2018-12-14T02:31:21.756Z,1.60
2018-12-14T02:33:50.853Z,1.90
2018-12-14T02:36:26.777Z,2.07
2018-12-14T02:38:55.953Z,2.30
2018-12-14T02:41:25.109Z,2.93
2018-12-14T02:43:54.247Z,2.47
2018-12-14T02:46:23.529Z,2.33
2018-12-14T02:48:52.666Z,2.20
2018-12-14T02:51:22.094Z,2.17
2018-12-14T02:53:51.274Z,2.17
2018-12-14T02:56:20.411Z,2.37
2018-12-14T02:58:49.589Z,1.60
2018-12-14T03:01:18.842Z,1.80
2018-12-14T03:03:48.206Z,2.10
2018-12-14T03:06:17.330Z,1.77
2018-12-14T03:08:46.858Z,1.93
2018-12-14T03:11:15.964Z,1.87
2018-12-14T03:13:45.115Z,1.73
2018-12-14T03:16:14.295Z,2.17
2018-12-14T03:18:43.494Z,2.80
2018-12-14T03:21:12.691Z,1.97
2018-12-14T03:23:41.853Z,1.93
2018-12-14T03:26:11.011Z,2.13
2018-12-14T03:28:40.215Z,2.10
2018-12-14T03:31:09.332Z,2.37
2018-12-14T03:33:38.625Z,2.23
2018-12-14T03:36:07.886Z,1.73
2018-12-14T03:38:37.178Z,1.90
2018-12-14T03:41:06.479Z,2.33
2018-12-14T03:43:35.630Z,2.07
2018-12-14T03:46:04.730Z,3.20
2018-12-14T03:48:33.978Z,2.13
2018-12-14T03:51:03.118Z,1.77
2018-12-14T03:53:32.346Z,2.03
2018-12-14T03:56:01.475Z,1.80
2018-12-14T03:58:30.671Z,2.77
2018-12-14T04:00:59.813Z,3.50
2018-12-14T04:03:29.007Z,1.63
2018-12-14T04:05:58.235Z,1.60
2018-12-14T04:08:27.529Z,1.70
2018-12-14T04:10:56.682Z,1.90
2018-12-14T04:13:25.883Z,1.70
2018-12-14T04:15:55.111Z,1.47
2018-12-14T04:18:24.240Z,1.50
2018-12-14T04:20:53.429Z,1.67
2018-12-14T04:23:22.578Z,1.50
2018-12-14T04:25:51.853Z,1.50
2018-12-14T04:28:21.214Z,1.50
2018-12-14T04:30:50.311Z,1.60
2018-12-14T04:33:19.428Z,1.80
2018-12-14T04:35:48.555Z,1.80
2018-12-14T04:38:19.678Z,1.80
2018-12-14T04:40:48.863Z,1.83
2018-12-14T04:43:17.961Z,1.43
2018-12-14T04:45:47.277Z,1.87
2018-12-14T04:48:16.387Z,1.53
2018-12-14T04:50:45.573Z,1.70
2018-12-14T04:53:14.773Z,1.80
2018-12-14T04:55:43.880Z,1.90
2018-12-14T04:58:13.294Z,1.63
2018-12-14T05:00:42.471Z,1.50
2018-12-14T05:03:11.642Z,1.77
2018-12-14T05:05:40.768Z,1.97
2018-12-14T05:08:09.849Z,1.57
2018-12-14T05:10:40.141Z,1.50
2018-12-14T05:15:43.250Z,1.63
2018-12-14T05:18:13.459Z,3.47
2018-12-14T05:20:43.694Z,1.50
2018-12-14T05:23:12.789Z,1.83
2018-12-14T05:25:41.881Z,1.77
2018-12-14T05:28:10.987Z,1.57
2018-12-14T05:30:40.798Z,1.70
2018-12-14T05:33:10.171Z,2.00
2018-12-14T05:35:39.375Z,1.77
2018-12-14T05:38:08.489Z,1.70
2018-12-14T05:40:37.589Z,2.77
2018-12-14T05:43:06.787Z,1.90
2018-12-14T05:45:38.570Z,1.80
2018-12-14T05:48:14.006Z,2.33
2018-12-14T05:50:43.439Z,1.80
2018-12-14T05:53:18.973Z,1.80
2018-12-14T05:55:48.067Z,2.07
2018-12-14T05:58:17.261Z,2.17
2018-12-14T06:00:46.562Z,2.20
2018-12-14T06:03:15.742Z,2.20
2018-12-14T06:05:44.950Z,2.47
2018-12-14T06:08:15.454Z,2.37
2018-12-14T06:10:44.586Z,2.40
2018-12-14T06:13:13.713Z,2.00
2018-12-14T06:15:42.939Z,1.83
2018-12-14T06:18:12.722Z,1.87
2018-12-14T06:23:41.842Z,2.43
2018-12-14T06:26:11.122Z,1.90
2018-12-14T06:28:40.257Z,1.87
2018-12-14T06:31:09.567Z,1.90
2018-12-14T06:33:38.810Z,2.10
2018-12-14T06:36:08.061Z,2.17
2018-12-14T06:38:37.201Z,3.57
2018-12-14T06:41:06.339Z,2.70
2018-12-14T06:43:35.793Z,2.17
2018-12-14T06:46:04.920Z,2.23
2018-12-14T06:48:34.132Z,2.07
2018-12-14T06:51:03.549Z,2.13
2018-12-14T06:53:32.694Z,2.40
2018-12-14T06:56:01.822Z,2.47
2018-12-14T06:58:31.591Z,2.73
2018-12-14T07:01:00.794Z,2.20
2018-12-14T07:03:29.906Z,2.20
2018-12-14T07:05:59.117Z,2.93
2018-12-14T07:08:28.205Z,2.50
2018-12-14T07:10:57.434Z,2.73
2018-12-14T07:13:26.546Z,3.00
2018-12-14T07:15:55.798Z,2.60
2018-12-14T07:18:25.024Z,2.63
2018-12-14T07:20:54.490Z,2.93
2018-12-14T07:23:23.581Z,2.80
2018-12-14T07:25:52.738Z,2.47
2018-12-14T07:28:21.923Z,2.67
2018-12-14T07:30:51.086Z,2.60
2018-12-14T07:33:20.404Z,2.57
2018-12-14T07:35:49.545Z,3.60
2018-12-14T07:38:19.762Z,4.87
2018-12-14T07:40:48.954Z,3.43
2018-12-14T07:43:18.038Z,4.07
2018-12-14T07:45:47.282Z,3.37
2018-12-14T07:48:16.377Z,3.00
2018-12-14T07:50:45.593Z,3.10
2018-12-14T07:53:14.685Z,3.63
2018-12-14T07:55:43.794Z,3.10
2018-12-14T07:58:12.920Z,3.73
2018-12-14T08:00:42.325Z,3.87
2018-12-14T08:03:11.473Z,3.87
2018-12-14T08:05:40.887Z,3.27
2018-12-14T08:08:10.540Z,4.13
2018-12-14T08:10:40.215Z,3.40
2018-12-14T08:13:09.390Z,3.90
2018-12-14T08:15:38.708Z,5.13
2018-12-14T08:18:07.846Z,2.87
2018-12-14T08:20:36.983Z,3.10
2018-12-14T08:23:06.146Z,3.73
2018-12-14T08:25:35.394Z,3.47
2018-12-14T08:28:04.593Z,3.20
2018-12-14T08:30:34.782Z,4.40
2018-12-14T08:33:04.222Z,3.30
2018-12-14T08:35:33.330Z,3.73
2018-12-14T08:38:02.422Z,3.33
2018-12-14T08:40:31.641Z,3.17
2018-12-14T08:43:00.885Z,4.07
2018-12-14T08:45:30.026Z,3.43
2018-12-14T08:47:59.501Z,4.07
2018-12-14T08:50:28.698Z,3.07
2018-12-14T08:52:57.792Z,3.50
2018-12-14T08:55:26.922Z,3.87
2018-12-14T08:57:56.010Z,4.37
2018-12-14T09:00:25.350Z,3.37
2018-12-14T09:02:54.559Z,6.30
2018-12-14T09:05:23.813Z,4.83
2018-12-14T09:07:53.055Z,5.97
2018-12-14T09:10:22.212Z,4.20
2018-12-14T09:12:51.378Z,3.97
2018-12-14T09:15:20.482Z,4.33
2018-12-14T09:17:49.822Z,4.03
2018-12-14T09:20:19.064Z,3.40
2018-12-14T09:22:48.759Z,3.87
2018-12-14T09:25:17.867Z,3.97
2018-12-14T09:27:47.167Z,4.00
2018-12-14T09:30:16.268Z,4.37
2018-12-14T09:32:45.383Z,3.40
2018-12-14T09:35:14.718Z,4.67
2018-12-14T09:37:44.321Z,3.80
2018-12-14T09:40:13.414Z,5.83
2018-12-14T09:42:42.683Z,3.53
2018-12-14T09:45:11.794Z,3.93
2018-12-14T09:47:40.914Z,3.60
2018-12-14T09:50:10.185Z,3.20
2018-12-14T09:52:40.657Z,5.10
2018-12-14T09:55:10.806Z,4.73
2018-12-14T09:57:39.906Z,4.23
2018-12-14T10:00:09.218Z,4.37
2018-12-14T10:02:38.349Z,3.63
2018-12-14T10:05:08.970Z,3.93
2018-12-14T10:07:38.289Z,5.77
2018-12-14T10:10:09.535Z,5.53
2018-12-14T10:12:38.666Z,4.03
2018-12-14T10:15:07.925Z,4.27
2018-12-14T10:17:37.110Z,4.30
2018-12-14T10:20:08.002Z,3.90
2018-12-14T10:22:41.531Z,3.93
2018-12-14T10:25:08.775Z,3.90
2018-12-14T10:27:39.001Z,4.13
2018-12-14T10:30:08.798Z,4.20
2018-12-14T10:32:37.914Z,4.10
2018-12-14T10:35:08.482Z,4.47
2018-12-14T10:37:37.718Z,4.10
2018-12-14T10:40:08.959Z,4.60
2018-12-14T10:42:38.263Z,4.83
2018-12-14T10:45:07.471Z,3.97
2018-12-14T10:47:36.694Z,4.10
2018-12-14T10:50:06.393Z,3.83
2018-12-14T10:52:35.487Z,4.10
2018-12-14T10:55:05.422Z,5.60
2018-12-14T10:57:34.661Z,3.50
2018-12-14T11:00:04.966Z,4.37
2018-12-14T11:02:34.134Z,3.77
2018-12-14T11:05:03.268Z,4.03
2018-12-14T11:07:32.530Z,4.53
2018-12-14T11:10:01.658Z,4.13
2018-12-14T11:12:32.241Z,3.97
2018-12-14T11:15:01.406Z,4.40
2018-12-14T11:17:30.550Z,4.37
2018-12-14T11:19:59.726Z,4.03
2018-12-14T11:22:28.974Z,3.70
2018-12-14T11:24:58.162Z,4.00
2018-12-14T11:27:27.286Z,4.07
2018-12-14T11:29:56.502Z,3.40
2018-12-14T11:32:25.718Z,3.77
2018-12-14T11:34:54.865Z,3.60
2018-12-14T11:37:23.978Z,3.80
2018-12-14T11:39:53.202Z,4.73
2018-12-14T11:42:22.560Z,3.93
2018-12-14T11:44:51.869Z,4.20
2018-12-14T11:47:21.165Z,4.33
2018-12-14T11:49:50.457Z,4.00
2018-12-14T11:52:19.590Z,4.57
2018-12-14T11:54:48.775Z,3.80
2018-12-14T11:57:17.985Z,3.97
2018-12-14T11:59:47.550Z,4.30
2018-12-14T12:02:16.650Z,3.80
2018-12-14T12:04:45.778Z,3.90
2018-12-14T12:07:14.897Z,3.47
2018-12-14T12:09:44.047Z,3.07
2018-12-14T12:12:13.182Z,3.77
2018-12-14T12:14:42.283Z,3.30
2018-12-14T12:17:12.458Z,3.53
2018-12-14T12:19:41.641Z,4.17
2018-12-14T12:22:10.911Z,3.33
2018-12-14T12:24:40.105Z,3.20
2018-12-14T12:27:09.774Z,3.33
2018-12-14T12:29:38.880Z,3.73
2018-12-14T12:32:08.118Z,3.80
2018-12-14T12:34:37.281Z,4.00
2018-12-14T12:37:06.481Z,3.87
2018-12-14T12:39:35.777Z,3.70
2018-12-14T12:42:05.006Z,3.27
2018-12-14T12:44:34.208Z,4.13
2018-12-14T12:47:04.549Z,3.90
2018-12-14T12:49:33.786Z,5.57
2018-12-14T12:52:04.092Z,4.03
2018-12-14T12:54:33.313Z,3.60
2018-12-14T12:57:02.450Z,4.07
2018-12-14T12:59:31.829Z,4.87
2018-12-14T13:02:01.359Z,4.47
2018-12-14T13:04:31.245Z,5.07
2018-12-14T13:07:00.530Z,4.17
2018-12-14T13:09:30.330Z,4.83
2018-12-14T13:11:59.547Z,3.27
2018-12-14T13:14:28.728Z,4.17
2018-12-14T13:16:57.948Z,3.67
2018-12-14T13:19:27.338Z,3.40
2018-12-14T13:21:57.954Z,3.70
2018-12-14T13:24:27.106Z,3.43
2018-12-14T13:26:56.949Z,3.23
2018-12-14T13:29:26.145Z,5.07
2018-12-14T13:31:55.586Z,3.53
2018-12-14T13:34:24.974Z,3.63
2018-12-14T13:36:54.357Z,3.53
2018-12-14T13:39:24.380Z,3.53
2018-12-14T13:41:53.794Z,4.03
2018-12-14T13:44:23.100Z,3.90
2018-12-14T13:46:52.436Z,3.10
2018-12-14T13:49:21.594Z,3.33
2018-12-14T13:51:50.996Z,4.53
2018-12-14T13:54:20.421Z,3.83
2018-12-14T13:56:49.592Z,4.70
2018-12-14T13:59:19.392Z,3.10
2018-12-14T14:01:48.499Z,3.43
2018-12-14T14:04:17.662Z,2.90
2018-12-14T14:06:47.102Z,3.50
2018-12-14T14:09:16.305Z,3.00
2018-12-14T14:11:45.414Z,3.13
2018-12-14T14:14:14.491Z,3.13
2018-12-14T14:16:43.665Z,3.30
2018-12-14T14:19:12.745Z,2.73
2018-12-14T14:21:41.901Z,2.97
2018-12-14T14:24:11.329Z,2.80
2018-12-14T14:26:44.498Z,3.17
2018-12-14T14:29:12.039Z,2.50
2018-12-14T14:31:41.521Z,2.90
2018-12-14T14:34:10.627Z,2.80
2018-12-14T14:36:39.801Z,3.17
2018-12-14T14:39:10.350Z,2.80
2018-12-14T14:41:39.569Z,2.73
2018-12-14T14:44:08.730Z,3.07
2018-12-14T14:46:37.894Z,3.07
2018-12-14T14:49:07.325Z,2.87
2018-12-14T14:51:36.715Z,2.83
2018-12-14T14:54:05.948Z,2.83
2018-12-14T14:56:35.450Z,4.07
2018-12-14T14:59:05.383Z,3.23
2018-12-14T15:01:34.541Z,2.23
2018-12-14T15:04:03.914Z,3.03
2018-12-14T15:06:33.409Z,2.90
2018-12-14T15:09:02.823Z,2.53
2018-12-14T15:11:32.726Z,2.70
2018-12-14T15:14:02.393Z,3.23
2018-12-14T15:16:31.622Z,3.60
2018-12-14T15:19:02.336Z,2.20
2018-12-14T15:21:31.489Z,3.57
2018-12-14T15:24:00.906Z,2.77
2018-12-14T15:26:30.061Z,3.53
2018-12-14T15:28:59.501Z,2.60
2018-12-14T15:31:28.726Z,2.87
2018-12-14T15:33:58.006Z,2.90
2018-12-14T15:36:27.339Z,2.87
2018-12-14T15:38:56.529Z,2.90
2018-12-14T15:41:26.525Z,2.87
2018-12-14T15:43:56.237Z,2.70
2018-12-14T15:46:26.074Z,3.07
2018-12-14T15:48:55.202Z,3.17
2018-12-14T15:51:24.297Z,2.70
2018-12-14T15:53:53.536Z,2.77
2018-12-14T15:56:22.613Z,3.00
2018-12-14T15:58:51.809Z,4.20
2018-12-14T16:01:21.025Z,2.60
2018-12-14T16:03:50.667Z,2.43
2018-12-14T16:06:19.787Z,2.77
2018-12-14T16:08:48.953Z,2.90
2018-12-14T16:11:18.013Z,2.87
2018-12-14T16:13:47.925Z,3.63
2018-12-14T16:16:16.991Z,3.50
2018-12-14T16:18:46.102Z,3.33
2018-12-14T16:21:15.808Z,3.17
2018-12-14T16:23:45.072Z,2.63
2018-12-14T16:26:14.278Z,3.30
2018-12-14T16:28:43.404Z,4.17
2018-12-14T16:31:12.609Z,3.30
2018-12-14T16:33:41.777Z,4.20
2018-12-14T16:36:11.357Z,3.53
2018-12-14T16:38:40.582Z,3.27
2018-12-14T16:41:09.935Z,3.10
2018-12-14T16:43:39.214Z,4.00
2018-12-14T16:46:08.481Z,3.57
2018-12-14T16:48:37.989Z,4.00
2018-12-14T16:51:07.385Z,3.73
2018-12-14T16:53:41.893Z,3.67
2018-12-14T16:56:11.241Z,3.53
2018-12-14T16:58:40.478Z,3.77
2018-12-14T17:01:09.623Z,4.20
2018-12-14T17:03:38.742Z,4.00
2018-12-14T17:06:07.949Z,7.17
2018-12-14T17:08:37.221Z,4.40
2018-12-14T17:11:06.386Z,3.90
2018-12-14T17:13:35.796Z,4.10
2018-12-14T17:16:05.014Z,5.13
2018-12-14T17:18:34.167Z,4.37
2018-12-14T17:21:04.062Z,4.00
2018-12-14T17:23:34.306Z,3.57
2018-12-14T17:26:04.228Z,3.37
2018-12-14T17:28:33.462Z,4.50
2018-12-14T17:31:02.611Z,4.57
2018-12-14T17:33:35.999Z,4.53
2018-12-14T17:36:05.114Z,6.13
2018-12-14T17:38:34.314Z,5.23
2018-12-14T17:41:03.810Z,4.90
2018-12-14T17:43:32.962Z,4.13
2018-12-14T17:46:02.374Z,3.17
2018-12-14T17:48:31.478Z,3.13
2018-12-14T17:51:00.619Z,3.80
2018-12-14T17:53:29.702Z,3.10
2018-12-14T17:55:58.834Z,2.93
2018-12-14T17:58:27.922Z,3.60
2018-12-14T18:00:58.638Z,3.83
2018-12-14T18:03:27.893Z,3.60
2018-12-14T18:05:57.010Z,3.30
2018-12-14T18:08:26.146Z,2.77
2018-12-14T18:10:55.249Z,2.50
2018-12-14T18:13:24.627Z,2.83
2018-12-14T18:15:54.017Z,3.03
2018-12-14T18:18:23.217Z,2.60
2018-12-14T18:20:52.422Z,2.80
2018-12-14T18:23:21.549Z,3.20
2018-12-14T18:25:50.789Z,2.80
2018-12-14T18:28:19.981Z,2.57
2018-12-14T18:30:49.069Z,3.03
2018-12-14T18:33:18.494Z,3.22
2018-12-14T18:35:47.893Z,2.70
2018-12-14T18:38:17.093Z,1.80
2018-12-14T18:40:47.045Z,2.23
2018-12-14T18:43:16.222Z,2.43
2018-12-14T18:45:52.964Z,2.40
2018-12-14T18:48:18.766Z,4.40
2018-12-14T18:50:47.946Z,2.40
2018-12-14T18:53:17.515Z,1.87
2018-12-14T18:55:46.738Z,1.57
2018-12-14T18:58:18.013Z,4.30
2018-12-14T19:00:47.448Z,1.40
2018-12-14T19:03:16.625Z,1.40
2018-12-14T19:05:45.968Z,1.87
2018-12-14T19:08:15.145Z,1.40
2018-12-14T19:10:44.257Z,0.80
2018-12-14T19:13:13.466Z,1.30
2018-12-14T19:15:49.249Z,0.90
2018-12-14T19:18:18.386Z,1.00
2018-12-14T19:20:47.480Z,1.67
2018-12-14T19:23:19.636Z,1.20
2018-12-14T19:25:47.911Z,3.23
2018-12-14T19:28:17.082Z,2.00
2018-12-14T19:30:46.173Z,2.20
2018-12-14T19:33:15.345Z,2.17
2018-12-14T19:35:44.458Z,2.53
2018-12-14T19:38:13.722Z,2.40
2018-12-14T19:40:42.815Z,3.05
2018-12-14T19:43:11.905Z,2.53
2018-12-14T19:45:41.169Z,2.23
2018-12-14T19:48:10.414Z,2.50
2018-12-14T19:50:39.714Z,2.65
2018-12-14T19:53:08.798Z,2.22
2018-12-14T19:55:38.010Z,2.80
2018-12-14T19:58:07.102Z,2.22
2018-12-14T20:00:36.374Z,2.53
2018-12-14T20:03:05.606Z,2.40
2018-12-14T20:05:34.842Z,2.33
2018-12-14T20:08:04.010Z,1.70
2018-12-14T20:10:33.166Z,2.20
2018-12-14T20:13:02.718Z,2.20
2018-12-14T20:15:31.868Z,2.10
2018-12-14T20:18:01.026Z,2.13
2018-12-14T20:20:30.782Z,1.97
2018-12-14T20:22:59.849Z,1.80
2018-12-14T20:25:29.547Z,1.93
2018-12-14T20:27:58.698Z,1.98
2018-12-14T20:30:28.010Z,3.43
2018-12-14T20:32:57.138Z,1.40
2018-12-14T20:35:29.217Z,2.23
2018-12-14T20:37:58.655Z,1.80
2018-12-14T20:40:27.757Z,1.80
2018-12-14T20:42:56.897Z,2.23
2018-12-14T20:45:26.398Z,1.65
2018-12-14T20:47:55.527Z,1.82
2018-12-14T20:50:24.620Z,2.50
2018-12-14T20:52:53.706Z,2.00
2018-12-14T20:55:22.801Z,3.17
2018-12-14T20:57:51.929Z,4.17
2018-12-14T21:00:21.588Z,4.08
2018-12-14T21:02:51.006Z,3.13
2018-12-14T21:05:20.115Z,3.17
2018-12-14T21:07:49.233Z,2.75
2018-12-14T21:10:19.432Z,2.60
2018-12-14T21:12:48.522Z,2.33
2018-12-14T21:15:17.734Z,2.43
2018-12-14T21:17:46.891Z,9.43
2018-12-14T21:20:16.102Z,4.97
2018-12-14T21:22:45.262Z,2.70
2018-12-14T21:25:14.545Z,2.25
2018-12-14T21:27:43.684Z,2.47
2018-12-14T21:30:12.930Z,1.92
2018-12-14T21:32:42.511Z,2.40
2018-12-14T21:35:11.598Z,2.20
2018-12-14T21:37:41.990Z,1.55
2018-12-14T21:40:11.232Z,2.20
2018-12-14T21:42:40.327Z,2.60
2018-12-14T21:45:09.542Z,1.70
2018-12-14T21:47:38.785Z,1.63
2018-12-14T21:50:08.743Z,2.03
2018-12-14T21:52:37.922Z,1.43
2018-12-14T21:55:08.029Z,1.17
2018-12-14T21:57:37.458Z,1.40
2018-12-14T22:00:09.174Z,1.20
2018-12-14T22:02:39.021Z,1.40
2018-12-14T22:05:08.597Z,4.53
2018-12-14T22:07:38.598Z,2.23
2018-12-14T22:10:08.821Z,2.07
2018-12-14T22:12:38.613Z,2.13
2018-12-14T22:15:07.867Z,1.00
2018-12-14T22:17:37.014Z,0.90
2018-12-14T22:20:06.362Z,1.47
2018-12-14T22:22:35.562Z,0.63
2018-12-14T22:25:05.721Z,0.67
2018-12-14T22:27:34.861Z,1.00
2018-12-14T22:30:04.290Z,0.80
2018-12-14T22:32:33.390Z,0.70
2018-12-14T22:35:02.478Z,0.90
2018-12-14T22:37:31.676Z,2.10
2018-12-14T22:40:00.797Z,2.20
2018-12-14T22:42:29.913Z,0.83
2018-12-14T22:45:00.354Z,0.90
2018-12-14T22:47:29.529Z,0.77
2018-12-14T22:49:59.418Z,0.90
2018-12-14T22:52:28.512Z,0.77
2018-12-14T22:54:57.638Z,0.60
2018-12-14T22:57:26.726Z,0.70
2018-12-14T22:59:55.918Z,1.30
2018-12-14T23:02:25.422Z,0.60
2018-12-14T23:04:54.954Z,0.80
2018-12-14T23:07:24.102Z,1.03
2018-12-14T23:09:53.287Z,1.33
2018-12-14T23:12:23.550Z,0.73
2018-12-14T23:14:52.690Z,1.40
2018-12-14T23:17:21.834Z,1.10
2018-12-14T23:19:51.034Z,1.07
2018-12-14T23:22:20.358Z,0.70
2018-12-14T23:24:49.461Z,0.90
2018-12-14T23:27:18.656Z,0.70
2018-12-14T23:29:47.834Z,1.27
2018-12-14T23:32:16.950Z,1.00
2018-12-14T23:34:46.119Z,1.03
2018-12-14T23:37:15.883Z,0.87
2018-12-14T23:39:45.054Z,0.90
2018-12-14T23:42:14.194Z,0.83
2018-12-14T23:44:44.597Z,1.27
2018-12-14T23:47:13.708Z,0.80
2018-12-14T23:49:42.870Z,0.90
2018-12-14T23:52:13.946Z,1.00
2018-12-14T23:54:43.333Z,1.30
2018-12-14T23:57:12.597Z,1.03
2018-12-14T23:59:41.830Z,1.10
